Nellis Air Force Base
KLSV : now visible

Airfield :











YOU CAN JOIN US ON...

 
LOGIN :

Register | Disclaimer

   EN    FR    IT 

 









Legend :    VFR   Marginal VFR   IFR   Intensive IFR   Very Intensive IFR
Visi :
Ceiling :
>= 8 km
>= 3000ft
5 to 8 km
1000 to 3000 ft
1500m to 5 km
500 to 1000 ft
800 to 1500m
200 to 500 ft
< 800m
< 200 ft
Symbols :   Thunderstorms  Fog  Heavy snow  Heavy precipitations  Wind > 20 kt






- Airport Elevation : 1870 ft


KLSV - Nellis Air Force Base

CURRENT METAR :
  • 192232Z AUTO 24013G17KT 10SM CLR 30/M14 A2985 RMK AO2 WSHFT 26 SLP092 $

EXPIRED METARs :
  • 192213Z AUTO 25012KT 10SM CLR 30/M14 A2986 RMK AO2 WSHFT 07 SLP095 $
  • 192158Z AUTO 19013G18KT 10SM CLR 30/M14 A2987 RMK AO2 SLP098 T02971140 $
  • 192139Z AUTO 24012G17KT 10SM CLR 30/M14 A2988 RMK AO2 WSHFT 36 SLP102 $
  • 192058Z AUTO 21010KT 10SM CLR 29/M15 A2991 RMK AO2 SLP113 T02871147 57036 $
  • 191958Z AUTO 16004KT 10SM CLR 27/M14 A2995 RMK AO2 SLP127 T02691138 $

TAF AMD TAF KLSV
Valid from the 19 at 21:00 until the 20 at 21:00 UTC


192125Z 1921/2021 21010G18KT 9999 FEW250 QNH2985INS
BECMG 2000/2001 23012G20KT 9999 FEW250 510009 QNH2976INS
TEMPO 2001/2004 24015G26KT 520009
BECMG 2004/2005 32010G15KT 9999 SCT250 QNH2981INS
BECMG 2007/2008 VRB06KT 9999 SCT250 QNH2981INS
TEMPO 2019/2021 03012G18KT SKC TX30/1923Z TN13/2013Z
KZLA FIR / North America



MET'MAP, your aeronautical weather chart ! - Copyright ORBIFLY December 2007 - Disclaimer

ORBIFLY MET'MAP TEAM :

Programming & Development : Alexandra Zaïnal
Concept & original design : Baudouin d'Aumeries
Assistance for programming : Marc-Olivier Méhu
Technical & hardware support : Manuel Goepfert

Contact : metmap@orbifly.com




SOURCES & CREDITS :

   NOAA       Earth
Advisory